Terminal Aerodrome Forecast
Issued by NWS

Home | Current Version | Previous Version | Text Only | Print | Product List | Glossary On
Versions: 1 2 3 4 5 6 7 8 9 10 11 12 13
000
FTUS46 KSTO 020520
TAFRBL
TAF
KRBL 020520Z 0206/0306 VRB04KT P6SM SKC
     FM022000 16012G18KT P6SM FEW250
     FM030200 17010KT P6SM SCT100 BKN250=

USA.gov is the U.S. government's official web portal to all federal, state and local government web resources and services.